Meadowood Estates, Indiana
Current Conditions -  °F | °C
As of 6:55 AM on Sunday 23 Nov 2014 (Local Time) from KMZZ Reporting Station
Overcast Overcast  
Wind Chill: 42°   Ceiling: 8500
Heat Index: 46°   Visibility: 10mi
Dew Point: 40°   Wind: 7mph
Humidity: 80%   Direction: 170°S
Pressure: 29.91"   Gusts: NA
Location:  40.3067°N, 85.834°W
Report Text: KMZZ 231155Z AUTO 17006KT 10SM OVC085 08/05 A2991 RMK AO2 60004 70005 T00780045 10178 21139
Loading
Personal Weather Stations






























Interactive Weather Map New forecast layout! Learn more

10-Day Weather Forecast

Advertisements
Track Severe Weather on mobile